Time;durP1;ratioP1;P1;durP2;ratioP2;P2;SDS_P1;SDS_P2;PMS_P1;PMS_P2;Temp;Humidity;BMP_temperature;BMP_pressure;BME280_temperature;BME280_humidity;BME280_pressure;Samples;Min_cycle;Max_cycle;Signal;HPM_P1;HPM_P2
2022/10/04 00:00:32;;;;;;;13.90;10.47;;;8.60;99.90;;;;;;10384688;28;20565;-76
2022/10/04 00:05:33;;;;;;;14.30;10.40;;;8.60;99.90;;;;;;10377235;28;20682;-75
2022/10/04 00:10:34;;;;;;;12.67;9.13;;;8.60;99.90;;;;;;10394936;28;20225;-76
2022/10/04 00:15:36;;;;;;;11.07;8.87;;;8.50;99.90;;;;;;10387513;28;20237;-75
2022/10/04 00:20:49;;;;;;;10.30;8.27;;;8.50;99.90;;;;;;10385543;28;20280;-77
2022/10/04 00:25:58;;;;;;;13.30;8.83;;;8.50;99.90;;;;;;10390093;28;20302;-76
2022/10/04 00:31:12;;;;;;;11.63;8.13;;;8.50;99.90;;;;;;10393372;28;20758;-76
2022/10/04 00:36:25;;;;;;;10.53;8.23;;;8.40;99.90;;;;;;10382950;28;20721;-76
2022/10/04 00:41:27;;;;;;;11.17;8.17;;;8.40;99.90;;;;;;10391853;28;20218;-75
2022/10/04 00:46:32;;;;;;;11.37;9.03;;;8.30;99.90;;;;;;10396741;28;20237;-78
2022/10/04 00:52:01;;;;;;;9.60;8.00;;;8.30;99.90;;;;;;10384889;28;20314;-75
2022/10/04 00:57:10;;;;;;;10.70;7.83;;;8.20;99.90;;;;;;10389425;28;20235;-75
2022/10/04 01:02:26;;;;;;;12.43;7.83;;;8.20;99.90;;;;;;10391913;28;20225;-74
2022/10/04 01:07:33;;;;;;;11.17;7.00;;;8.20;99.90;;;;;;10400740;28;20230;-76
2022/10/04 01:12:48;;;;;;;10.30;7.47;;;8.10;99.90;;;;;;10385394;28;20696;-75
2022/10/04 01:18:08;;;;;;;11.80;7.50;;;8.10;99.90;;;;;;10386090;28;20693;-77
2022/10/04 01:23:09;;;;;;;9.43;7.40;;;8.10;99.90;;;;;;10380429;28;20237;-76
2022/10/04 01:28:09;;;;;;;10.53;7.33;;;8.10;99.90;;;;;;10381546;28;20223;-76
2022/10/04 01:33:11;;;;;;;10.90;7.07;;;8.00;99.90;;;;;;10396153;28;20712;-77
2022/10/04 01:38:12;;;;;;;9.73;7.40;;;8.00;99.90;;;;;;10389655;28;20214;-76
2022/10/04 01:43:20;;;;;;;8.70;6.83;;;7.90;99.90;;;;;;10396577;28;20222;-76
2022/10/04 01:48:25;;;;;;;10.20;7.10;;;7.90;99.90;;;;;;10400341;28;20221;-76
2022/10/04 01:53:33;;;;;;;9.20;7.50;;;7.90;99.90;;;;;;10392969;28;20225;-75
2022/10/04 01:59:04;;;;;;;9.97;7.20;;;7.90;99.90;;;;;;10394401;28;20218;-75
2022/10/04 02:04:12;;;;;;;10.40;7.43;;;7.80;99.90;;;;;;10382141;28;20238;-76
2022/10/04 02:09:18;;;;;;;11.27;7.50;;;7.70;99.90;;;;;;10396048;28;20255;-75
2022/10/04 02:14:23;;;;;;;8.93;7.53;;;7.60;99.90;;;;;;10398975;28;20225;-76
2022/10/04 02:19:34;;;;;;;11.30;7.83;;;7.60;99.90;;;;;;10393533;28;20230;-76
2022/10/04 02:24:40;;;;;;;8.50;6.60;;;7.60;99.90;;;;;;10409070;28;20217;-76
2022/10/04 02:29:40;;;;;;;11.97;7.07;;;7.60;99.90;;;;;;10391497;28;20319;-76
2022/10/04 02:34:41;;;;;;;8.47;6.67;;;7.50;99.90;;;;;;10391841;28;20583;-76
2022/10/04 02:39:52;;;;;;;10.87;7.30;;;7.60;99.90;;;;;;10390658;28;20661;-76
2022/10/04 02:45:04;;;;;;;9.33;6.50;;;7.60;99.90;;;;;;10393697;28;20234;-75
2022/10/04 02:50:15;;;;;;;8.40;6.77;;;7.50;99.90;;;;;;10386914;28;20255;-76
2022/10/04 02:55:23;;;;;;;8.90;7.13;;;7.50;99.90;;;;;;10398740;28;20227;-76
2022/10/04 03:00:29;;;;;;;10.90;7.03;;;7.40;99.90;;;;;;10399968;28;20554;-76
2022/10/04 03:05:29;;;;;;;9.07;7.20;;;7.40;99.90;;;;;;10396169;28;20635;-76
2022/10/04 03:10:31;;;;;;;8.20;7.13;;;7.40;99.90;;;;;;10390842;28;20229;-75
2022/10/04 03:15:34;;;;;;;12.00;7.80;;;7.30;99.90;;;;;;10388094;28;20234;-75
2022/10/04 03:20:39;;;;;;;12.43;7.43;;;7.30;99.90;;;;;;10388980;28;20606;-76
2022/10/04 03:26:18;;;;;;;9.80;6.83;;;7.30;99.90;;;;;;10389153;28;20316;-77
2022/10/04 03:31:18;;;;;;;9.63;6.60;;;7.30;99.90;;;;;;10385418;28;20686;-74
2022/10/04 03:36:21;;;;;;;8.97;6.53;;;7.20;99.90;;;;;;10391548;28;20282;-76
2022/10/04 03:41:24;;;;;;;12.83;7.23;;;7.30;99.90;;;;;;10393132;28;20227;-76
2022/10/04 03:46:27;;;;;;;11.23;6.50;;;7.20;99.90;;;;;;10387029;28;20226;-76
2022/10/04 03:51:28;;;;;;;8.93;6.83;;;7.30;99.90;;;;;;10399494;28;20221;-77
2022/10/04 03:56:30;;;;;;;7.87;6.57;;;7.30;99.90;;;;;;10391537;28;20239;-76
2022/10/04 04:01:49;;;;;;;8.43;6.47;;;7.30;99.90;;;;;;10389564;28;20237;-76
2022/10/04 04:07:06;;;;;;;7.97;5.67;;;7.20;99.90;;;;;;10397598;28;20304;-77
2022/10/04 04:12:35;;;;;;;9.70;6.80;;;7.20;99.90;;;;;;10383495;28;20236;-76
2022/10/04 04:17:45;;;;;;;11.77;6.43;;;7.30;99.90;;;;;;10387461;28;20327;-75
2022/10/04 04:22:59;;;;;;;9.97;6.73;;;7.30;99.90;;;;;;10389440;28;20863;-75
2022/10/04 04:28:04;;;;;;;9.63;6.43;;;7.30;99.90;;;;;;10389903;28;20243;-75
2022/10/04 04:33:16;;;;;;;10.77;7.50;;;7.40;99.90;;;;;;10381395;28;20749;-75
2022/10/04 04:38:21;;;;;;;9.40;6.60;;;7.30;99.90;;;;;;10384856;28;20272;-76
2022/10/04 04:43:26;;;;;;;10.17;7.37;;;7.40;99.90;;;;;;10390303;28;20276;-77
2022/10/04 04:48:28;;;;;;;8.87;6.70;;;7.40;99.90;;;;;;10388341;28;20227;-76
2022/10/04 04:53:29;;;;;;;9.63;6.43;;;7.50;99.90;;;;;;10382700;28;20335;-76
2022/10/04 04:58:34;;;;;;;10.53;6.60;;;7.50;99.90;;;;;;10391830;28;20208;-76
2022/10/04 05:03:35;;;;;;;7.33;6.40;;;7.60;99.90;;;;;;10392115;28;20236;-75
2022/10/04 05:08:36;;;;;;;9.60;6.07;;;7.60;99.90;;;;;;10390731;28;20653;-75
2022/10/04 05:13:50;;;;;;;6.97;5.73;;;7.50;99.90;;;;;;10384218;28;20312;-75
2022/10/04 05:18:58;;;;;;;6.90;6.10;;;7.50;99.90;;;;;;10386262;28;20223;-76
2022/10/04 05:24:16;;;;;;;8.87;6.13;;;7.50;99.90;;;;;;10382475;28;20218;-75
2022/10/04 05:29:21;;;;;;;10.37;6.37;;;7.40;99.90;;;;;;10389591;28;20241;-76
2022/10/04 05:34:24;;;;;;;10.47;6.00;;;7.40;99.90;;;;;;10383003;28;20234;-76
2022/10/04 05:39:47;;;;;;;10.27;6.40;;;7.40;99.90;;;;;;10385816;28;20296;-76
2022/10/04 05:44:53;;;;;;;8.30;6.00;;;7.30;99.90;;;;;;10393863;28;20212;-75
2022/10/04 05:49:56;;;;;;;7.30;6.00;;;7.40;99.90;;;;;;10382314;28;20301;-75
2022/10/04 05:55:18;;;;;;;6.93;5.00;;;7.50;99.90;;;;;;10388003;28;20729;-75
2022/10/04 06:00:45;;;;;;;12.00;6.27;;;7.70;99.90;;;;;;10385204;28;20239;-77
2022/10/04 06:05:50;;;;;;;11.37;5.87;;;7.80;99.90;;;;;;10347117;28;20672;-75
2022/10/04 06:11:01;;;;;;;9.73;5.70;;;7.90;99.90;;;;;;10382332;28;20238;-75
2022/10/04 06:16:38;;;;;;;7.77;5.87;;;7.90;99.90;;;;;;10388901;28;20285;-75
2022/10/04 06:22:16;;;;;;;8.73;5.30;;;8.10;99.90;;;;;;10390727;28;20230;-76
2022/10/04 06:27:27;;;;;;;8.07;5.10;;;8.30;99.90;;;;;;10389143;28;20279;-77
2022/10/04 06:33:05;;;;;;;10.70;5.50;;;8.50;99.90;;;;;;10405380;28;20295;-76
2022/10/04 06:38:15;;;;;;;9.33;5.67;;;8.60;99.90;;;;;;10386253;28;20275;-75
2022/10/04 06:43:58;;;;;;;8.83;5.17;;;8.70;99.90;;;;;;10393350;28;20220;-76
2022/10/04 06:49:17;;;;;;;6.33;4.80;;;8.90;99.90;;;;;;10393012;28;20234;-75
2022/10/04 06:54:37;;;;;;;5.27;4.63;;;9.30;99.90;;;;;;10385015;28;20234;-75
2022/10/04 07:00:14;;;;;;;10.30;4.20;;;9.70;99.90;;;;;;10397409;28;20215;-76
2022/10/04 07:05:29;;;;;;;4.63;3.80;;;9.90;99.90;;;;;;10383342;28;20224;-76
2022/10/04 07:10:50;;;;;;;6.50;4.03;;;10.20;99.90;;;;;;10390417;28;20256;-75
2022/10/04 07:16:21;;;;;;;7.70;4.90;;;10.60;99.90;;;;;;10398869;28;20268;-76
2022/10/04 07:21:26;;;;;;;5.47;3.30;;;11.00;99.90;;;;;;10387583;28;20287;-76
2022/10/04 07:26:44;;;;;;;8.43;3.73;;;11.60;99.90;;;;;;10393322;28;20282;-76
2022/10/04 07:31:47;;;;;;;6.40;3.30;;;13.00;99.90;;;;;;10386892;28;20303;-74
2022/10/04 07:36:53;;;;;;;4.23;3.33;;;15.60;99.90;;;;;;10390256;28;20233;-75
2022/10/04 07:42:06;;;;;;;4.60;3.63;;;17.60;99.90;;;;;;10384284;28;20226;-76
2022/10/04 07:47:20;;;;;;;10.33;3.83;;;17.90;99.90;;;;;;10391385;28;20939;-75
2022/10/04 07:52:35;;;;;;;7.97;3.50;;;17.70;99.90;;;;;;10392190;28;20266;-76
2022/10/04 07:57:51;;;;;;;8.07;3.50;;;18.40;99.90;;;;;;10394087;28;20588;-75
2022/10/04 08:03:21;;;;;;;11.10;4.30;;;19.10;99.90;;;;;;10407623;28;20222;-75
2022/10/04 08:08:40;;;;;;;8.37;4.17;;;19.60;99.90;;;;;;10386394;28;20461;-76
2022/10/04 08:14:04;;;;;;;6.67;3.83;;;20.90;99.90;;;;;;10387140;28;20229;-76
2022/10/04 08:19:34;;;;;;;7.57;4.13;;;22.30;95.90;;;;;;10380587;28;20220;-75
2022/10/04 08:24:53;;;;;;;7.07;3.80;;;23.60;88.40;;;;;;10402685;28;20231;-75
2022/10/04 08:30:15;;;;;;;10.30;4.13;;;23.90;85.60;;;;;;10394448;28;20223;-76
2022/10/04 08:35:28;;;;;;;6.63;3.63;;;24.80;73.90;;;;;;10383802;28;20668;-76
2022/10/04 08:41:05;;;;;;;8.57;3.87;;;25.20;71.20;;;;;;10387184;28;20232;-76
2022/10/04 08:46:46;;;;;;;7.50;4.07;;;25.90;67.80;;;;;;10380416;28;20223;-76
2022/10/04 08:52:08;;;;;;;5.20;3.60;;;26.50;62.20;;;;;;10383026;28;20247;-74
2022/10/04 08:57:23;;;;;;;6.70;3.77;;;26.40;60.70;;;;;;10392319;28;20253;-76
2022/10/04 09:03:01;;;;;;;3.73;2.97;;;26.20;60.50;;;;;;10387122;28;20223;-76
2022/10/04 09:08:21;;;;;;;6.83;4.17;;;26.20;61.30;;;;;;10392188;28;20227;-77
2022/10/04 09:13:50;;;;;;;6.10;4.00;;;25.30;62.40;;;;;;10394069;28;20227;-75
2022/10/04 09:19:20;;;;;;;6.43;3.60;;;25.10;62.40;;;;;;10383002;28;20318;-76
2022/10/04 09:25:04;;;;;;;7.10;3.80;;;27.00;58.50;;;;;;10389355;28;20548;-76
2022/10/04 09:30:19;;;;;;;11.07;4.20;;;28.00;55.10;;;;;;10389066;28;20246;-76
2022/10/04 09:35:49;;;;;;;8.27;4.40;;;27.40;56.40;;;;;;10382855;28;20249;-76
2022/10/04 09:41:26;;;;;;;5.90;3.73;;;27.30;55.90;;;;;;10383487;28;20227;-76
2022/10/04 09:46:50;;;;;;;4.73;3.90;;;27.60;55.30;;;;;;10383650;28;20593;-76
2022/10/04 09:52:05;;;;;;;5.67;3.63;;;28.60;54.00;;;;;;10382921;28;20220;-76
2022/10/04 09:57:15;;;;;;;6.70;3.37;;;30.50;50.00;;;;;;10404171;28;20251;-76
2022/10/04 10:02:50;;;;;;;5.00;3.60;;;31.50;47.70;;;;;;10391821;28;20623;-76
2022/10/04 10:08:23;;;;;;;5.30;3.50;;;31.90;44.90;;;;;;10394259;28;20266;-76
2022/10/04 10:13:41;;;;;;;6.27;3.43;;;31.60;44.20;;;;;;10390438;28;20264;-78
2022/10/04 10:19:20;;;;;;;4.73;3.30;;;29.80;46.30;;;;;;10390586;28;20229;-79
2022/10/04 10:24:41;;;;;;;8.10;3.63;;;29.40;48.20;;;;;;10393650;28;20252;-77
2022/10/04 10:30:20;;;;;;;5.93;3.23;;;30.60;46.60;;;;;;10400107;28;20217;-77
2022/10/04 10:35:24;;;;;;;7.33;3.33;;;31.30;44.00;;;;;;10388194;28;20290;-76
2022/10/04 10:40:44;;;;;;;5.37;3.47;;;30.30;46.20;;;;;;10392597;28;20227;-75
2022/10/04 10:45:55;;;;;;;5.77;3.87;;;28.60;48.40;;;;;;10390488;28;20218;-76
2022/10/04 10:51:22;;;;;;;9.27;3.90;;;27.00;51.50;;;;;;10388533;28;20292;-76
2022/10/04 10:56:37;;;;;;;5.63;3.50;;;27.50;51.10;;;;;;10388666;28;20314;-78
2022/10/04 11:01:48;;;;;;;7.83;3.37;;;26.40;52.90;;;;;;10410347;28;20318;-76
2022/10/04 11:07:21;;;;;;;5.80;3.13;;;27.40;52.20;;;;;;10401344;28;20262;-76
2022/10/04 11:12:49;;;;;;;6.53;3.80;;;27.90;51.20;;;;;;10387796;28;20322;-76
2022/10/04 11:17:58;;;;;;;7.83;3.87;;;26.20;54.20;;;;;;10400576;28;20294;-76
2022/10/04 11:23:20;;;;;;;7.10;3.67;;;24.00;58.50;;;;;;10394021;28;20221;-76
2022/10/04 11:28:39;;;;;;;8.73;4.07;;;22.00;66.00;;;;;;10387363;28;20280;-76
2022/10/04 11:33:58;;;;;;;8.77;4.10;;;20.90;70.50;;;;;;10387611;28;20236;-76
2022/10/04 11:39:07;;;;;;;9.03;4.13;;;20.10;75.10;;;;;;10392309;28;20741;-76
2022/10/04 11:44:46;;;;;;;9.87;4.40;;;19.90;78.30;;;;;;10384337;28;20230;-75
2022/10/04 11:50:23;;;;;;;9.00;4.50;;;19.40;80.60;;;;;;10394626;28;20625;-76
2022/10/04 11:55:46;;;;;;;9.17;4.53;;;19.10;84.50;;;;;;10389754;28;20703;-76
2022/10/04 12:01:13;;;;;;;8.27;4.70;;;18.60;87.10;;;;;;10386761;28;20226;-76
2022/10/04 12:06:36;;;;;;;10.73;4.77;;;18.40;90.30;;;;;;10384391;28;20765;-75
2022/10/04 12:17:45;;;;;;;9.40;4.43;;;18.10;94.30;;;;;;10386260;28;20229;-75
2022/10/04 12:23:29;;;;;;;6.00;4.03;;;18.10;97.20;;;;;;10384529;28;20258;-75
2022/10/04 12:28:49;;;;;;;6.73;3.90;;;18.00;98.20;;;;;;10386211;28;20227;-76
2022/10/04 12:34:13;;;;;;;7.93;3.80;;;17.90;99.90;;;;;;10392328;28;20705;-76
2022/10/04 12:39:19;;;;;;;7.13;4.30;;;17.80;99.90;;;;;;10383562;28;20221;-77
2022/10/04 12:44:44;;;;;;;8.80;3.77;;;17.90;99.90;;;;;;10389193;28;20225;-76
2022/10/04 12:50:13;;;;;;;8.37;4.30;;;17.80;99.90;;;;;;10387882;28;20222;-76
2022/10/04 12:55:13;;;;;;;7.47;3.90;;;17.80;99.90;;;;;;10381434;28;20237;-75
2022/10/04 13:00:21;;;;;;;7.50;4.10;;;17.70;99.90;;;;;;10396674;28;20199;-76
2022/10/04 13:05:50;;;;;;;7.30;4.93;;;17.80;99.90;;;;;;10391041;28;20305;-76
2022/10/04 13:11:00;;;;;;;7.33;4.03;;;17.80;99.90;;;;;;10398490;28;20711;-77
2022/10/04 13:16:27;;;;;;;10.50;4.00;;;17.90;99.90;;;;;;10382951;28;20233;-76
2022/10/04 13:21:59;;;;;;;9.00;3.80;;;18.00;99.90;;;;;;10392245;28;20212;-75
2022/10/04 13:27:13;;;;;;;7.43;3.87;;;17.90;99.90;;;;;;10382625;28;20295;-76
2022/10/04 13:32:25;;;;;;;11.27;3.70;;;17.80;99.90;;;;;;10399124;28;20277;-76
2022/10/04 13:37:34;;;;;;;9.57;4.53;;;17.90;99.90;;;;;;10395405;28;20308;-76
2022/10/04 13:42:53;;;;;;;8.93;3.80;;;18.10;99.90;;;;;;10392318;28;20227;-77
2022/10/04 13:48:22;;;;;;;5.57;3.87;;;18.10;99.90;;;;;;10390449;28;20232;-77
2022/10/04 13:59:31;;;;;;;9.40;4.07;;;18.20;99.90;;;;;;10389032;28;20719;-76
2022/10/04 14:04:50;;;;;;;7.83;3.90;;;18.20;99.90;;;;;;10393467;28;20647;-77
2022/10/04 14:10:26;;;;;;;7.60;4.30;;;18.10;99.90;;;;;;10399837;28;20229;-74
2022/10/04 14:15:50;;;;;;;5.97;3.97;;;18.10;99.90;;;;;;10391053;28;20243;-75
2022/10/04 14:21:11;;;;;;;6.47;4.17;;;18.20;99.90;;;;;;10390651;28;20225;-75
2022/10/04 14:26:22;;;;;;;9.07;5.03;;;18.20;99.90;;;;;;10387340;28;20224;-76
2022/10/04 14:31:32;;;;;;;5.37;3.93;;;18.10;99.90;;;;;;10401088;28;20222;-77
2022/10/04 14:36:52;;;;;;;8.70;4.13;;;18.10;99.90;;;;;;10386221;28;20237;-76
2022/10/04 14:42:04;;;;;;;5.37;3.60;;;18.10;99.90;;;;;;10387859;28;20774;-75
2022/10/04 14:47:14;;;;;;;6.07;4.40;;;18.00;99.90;;;;;;10393566;28;20223;-75
2022/10/04 14:52:37;;;;;;;7.07;3.67;;;18.00;99.90;;;;;;10388121;28;20273;-76
2022/10/04 14:58:04;;;;;;;5.87;3.63;;;17.90;99.90;;;;;;10399623;28;20782;-76
2022/10/04 15:03:18;;;;;;;7.57;3.93;;;17.80;99.90;;;;;;10394399;28;20984;-74
2022/10/04 15:08:24;;;;;;;7.43;3.30;;;17.80;99.90;;;;;;10394744;28;20230;-76
2022/10/04 15:13:54;;;;;;;4.77;3.30;;;17.70;99.90;;;;;;10386802;28;20221;-75
2022/10/04 15:19:21;;;;;;;4.90;3.13;;;17.60;99.90;;;;;;10387125;28;20694;-76
2022/10/04 15:24:26;;;;;;;4.30;3.07;;;17.50;99.90;;;;;;10407550;28;20229;-76
2022/10/04 15:29:38;;;;;;;6.30;3.00;;;17.40;99.90;;;;;;10389525;28;20320;-76
2022/10/04 15:34:45;;;;;;;7.57;3.30;;;17.30;99.90;;;;;;10393482;28;20229;-76
2022/10/04 15:40:07;;;;;;;10.10;3.43;;;17.20;99.90;;;;;;10392158;28;20221;-75
2022/10/04 15:45:16;;;;;;;5.57;2.83;;;17.10;99.90;;;;;;10384625;28;20335;-76
2022/10/04 15:50:34;;;;;;;6.87;3.20;;;17.00;99.90;;;;;;10391764;28;20200;-75
2022/10/04 15:55:52;;;;;;;8.03;3.30;;;16.90;99.90;;;;;;10395308;28;20320;-76
2022/10/04 16:01:05;;;;;;;6.77;3.63;;;16.80;99.90;;;;;;10389562;28;20535;-77
2022/10/04 16:06:21;;;;;;;6.13;3.50;;;16.60;99.90;;;;;;10400147;28;20216;-75
2022/10/04 16:11:47;;;;;;;5.77;3.20;;;16.50;99.90;;;;;;10385948;28;20916;-75
2022/10/04 16:17:06;;;;;;;6.30;3.10;;;16.40;99.90;;;;;;10386482;28;20328;-76
2022/10/04 16:22:15;;;;;;;4.57;2.97;;;16.30;99.90;;;;;;10391672;28;20627;-75
2022/10/04 16:27:45;;;;;;;9.03;3.17;;;16.20;99.90;;;;;;10395029;28;20217;-75
2022/10/04 16:32:58;;;;;;;4.47;2.70;;;16.00;99.90;;;;;;10385957;28;20217;-76
2022/10/04 16:38:10;;;;;;;3.20;2.63;;;15.80;99.90;;;;;;10390332;28;20286;-76
2022/10/04 16:43:28;;;;;;;4.30;3.00;;;15.60;99.90;;;;;;10382515;28;20221;-77
2022/10/04 16:48:37;;;;;;;6.43;3.67;;;15.40;99.90;;;;;;10405554;28;20220;-76
2022/10/04 16:54:03;;;;;;;6.50;3.60;;;15.20;99.90;;;;;;10384583;28;20271;-77
2022/10/04 16:59:13;;;;;;;6.03;3.80;;;15.00;99.90;;;;;;10389964;28;20354;-76
2022/10/04 17:04:27;;;;;;;5.37;3.60;;;14.70;99.90;;;;;;10374438;28;20847;-76
2022/10/04 17:09:46;;;;;;;6.43;4.23;;;14.50;99.90;;;;;;10388060;28;20237;-77
2022/10/04 17:15:06;;;;;;;6.57;3.90;;;14.30;99.90;;;;;;10387242;28;20815;-77
2022/10/04 17:20:31;;;;;;;7.30;3.70;;;14.10;99.90;;;;;;10381239;28;20217;-76
2022/10/04 17:26:00;;;;;;;5.37;3.63;;;13.90;99.90;;;;;;10396868;28;20219;-76
2022/10/04 17:31:09;;;;;;;6.33;3.63;;;13.80;99.90;;;;;;10391932;28;20221;-76
2022/10/04 17:36:27;;;;;;;8.70;4.60;;;13.70;99.90;;;;;;10381670;28;20233;-76
2022/10/04 17:41:42;;;;;;;6.57;4.00;;;13.50;99.90;;;;;;10386564;28;20221;-76
2022/10/04 17:46:55;;;;;;;7.17;4.53;;;13.40;99.90;;;;;;10380613;28;20220;-77
2022/10/04 17:57:34;;;;;;;8.97;4.93;;;13.30;99.90;;;;;;10388697;28;20674;-76
2022/10/04 18:02:58;;;;;;;8.50;5.03;;;13.20;99.90;;;;;;10392313;28;20220;-77
2022/10/04 18:08:10;;;;;;;9.27;5.40;;;13.10;99.90;;;;;;10388907;28;20248;-76
2022/10/04 18:13:14;;;;;;;8.00;4.37;;;13.00;99.90;;;;;;10381856;28;20241;-76
2022/10/04 18:18:25;;;;;;;7.50;4.70;;;12.90;99.90;;;;;;10395485;28;20224;-76
2022/10/04 18:23:28;;;;;;;6.60;4.37;;;12.90;99.90;;;;;;10385258;28;20260;-75
2022/10/04 18:28:31;;;;;;;6.50;4.30;;;12.80;99.90;;;;;;10397071;28;20216;-76
2022/10/04 18:33:52;;;;;;;7.53;5.27;;;12.80;99.90;;;;;;10392015;28;20217;-75
2022/10/04 18:39:17;;;;;;;9.43;6.03;;;12.70;99.90;;;;;;10392368;28;20240;-77
2022/10/04 18:44:28;;;;;;;7.27;6.23;;;12.60;99.90;;;;;;10395494;28;20228;-77
2022/10/04 18:49:42;;;;;;;11.57;6.40;;;12.60;99.90;;;;;;10390103;28;20217;-76
2022/10/04 18:55:11;;;;;;;7.33;5.73;;;12.50;99.90;;;;;;10398968;28;20223;-78
2022/10/04 19:05:50;;;;;;;9.23;6.27;;;12.40;99.90;;;;;;10393191;28;20295;-77
2022/10/04 19:10:58;;;;;;;8.90;6.47;;;12.30;99.90;;;;;;10393351;28;20220;-71
2022/10/04 19:16:18;;;;;;;11.43;6.47;;;12.30;99.90;;;;;;10405813;28;20270;-71
2022/10/04 19:21:37;;;;;;;10.90;6.90;;;12.30;99.90;;;;;;10409805;28;20295;-71
2022/10/04 19:26:53;;;;;;;8.37;6.20;;;12.30;99.90;;;;;;10387873;28;20954;-71
2022/10/04 19:32:00;;;;;;;8.57;6.33;;;12.30;99.90;;;;;;10400394;28;20227;-71
2022/10/04 19:37:07;;;;;;;11.27;6.70;;;12.20;99.90;;;;;;10393411;28;20267;-71
2022/10/04 19:42:11;;;;;;;8.90;6.80;;;12.20;99.90;;;;;;10385366;28;20907;-71
2022/10/04 19:47:42;;;;;;;11.40;7.50;;;12.20;99.90;;;;;;10399354;28;20252;-76
2022/10/04 19:52:50;;;;;;;12.77;6.90;;;12.00;99.90;;;;;;10393732;28;20593;-77
2022/10/04 19:58:04;;;;;;;10.20;6.93;;;12.00;99.90;;;;;;10386840;28;20237;-76
2022/10/04 20:03:15;;;;;;;9.77;6.87;;;11.90;99.90;;;;;;10390873;28;20259;-76
2022/10/04 20:08:47;;;;;;;10.20;7.57;;;11.80;99.90;;;;;;10405699;28;20294;-73
2022/10/04 20:14:15;;;;;;;12.23;8.53;;;11.70;99.90;;;;;;10420727;28;20683;-74
2022/10/04 20:19:28;;;;;;;12.37;7.73;;;11.70;99.90;;;;;;10402182;28;20221;-78
2022/10/04 20:24:51;;;;;;;9.60;7.67;;;11.60;99.90;;;;;;10398617;28;20274;-81
2022/10/04 20:29:56;;;;;;;8.27;6.70;;;11.60;99.90;;;;;;10406224;28;20212;-82
2022/10/04 20:34:58;;;;;;;12.47;7.10;;;11.60;99.90;;;;;;10414334;28;20216;-77
2022/10/04 20:39:58;;;;;;;8.23;7.03;;;11.60;99.90;;;;;;10389750;28;20318;-79
2022/10/04 20:45:09;;;;;;;12.77;7.47;;;11.50;99.90;;;;;;10388883;28;20234;-80
2022/10/04 20:50:27;;;;;;;12.37;7.57;;;11.50;99.90;;;;;;10399880;28;20270;-81
2022/10/04 20:55:30;;;;;;;12.47;8.50;;;11.40;99.90;;;;;;10392171;28;20208;-80
2022/10/04 21:00:33;;;;;;;10.67;8.00;;;11.40;99.90;;;;;;10384261;28;20751;-80
2022/10/04 21:05:34;;;;;;;11.80;7.50;;;11.60;99.90;;;;;;10381906;28;20229;-80
2022/10/04 21:10:34;;;;;;;9.60;7.23;;;11.50;99.90;;;;;;10383381;28;20235;-80
2022/10/04 21:15:35;;;;;;;9.37;7.70;;;11.40;99.90;;;;;;10397701;28;20548;-80
2022/10/04 21:20:47;;;;;;;11.53;7.50;;;11.30;99.90;;;;;;10389557;28;20221;-77
2022/10/04 21:25:48;;;;;;;11.63;9.07;;;11.20;99.90;;;;;;10407710;28;20315;-80
2022/10/04 21:30:49;;;;;;;13.07;9.07;;;11.20;99.90;;;;;;10405305;28;20312;-79
2022/10/04 21:35:51;;;;;;;12.57;9.00;;;11.10;99.90;;;;;;10416049;28;20701;-80
2022/10/04 21:40:51;;;;;;;11.07;8.03;;;11.10;99.90;;;;;;10399187;28;20304;-80
2022/10/04 21:45:52;;;;;;;15.40;9.70;;;11.20;99.90;;;;;;10391814;28;20642;-81
2022/10/04 21:50:54;;;;;;;12.50;9.53;;;11.20;99.90;;;;;;10395225;28;20216;-82
2022/10/04 21:55:54;;;;;;;9.67;8.67;;;11.30;99.90;;;;;;10414674;28;20228;-81
2022/10/04 22:00:55;;;;;;;12.10;8.33;;;11.30;99.90;;;;;;10415481;28;20246;-78
2022/10/04 22:05:56;;;;;;;13.63;8.13;;;11.30;99.90;;;;;;10396014;28;20288;-78
2022/10/04 22:10:56;;;;;;;10.60;8.20;;;11.20;99.90;;;;;;10402661;28;20228;-78
2022/10/04 22:15:57;;;;;;;10.67;8.40;;;11.10;99.90;;;;;;10390806;28;20304;-78
2022/10/04 22:20:58;;;;;;;11.87;8.23;;;11.10;99.90;;;;;;10403587;28;20898;-79
2022/10/04 22:26:00;;;;;;;10.77;8.10;;;11.00;99.90;;;;;;10403106;28;20310;-78
2022/10/04 22:31:01;;;;;;;11.60;7.50;;;11.00;99.90;;;;;;10391909;28;20224;-78
2022/10/04 22:36:13;;;;;;;9.60;7.90;;;11.00;99.90;;;;;;10400358;28;20308;-78
2022/10/04 22:41:20;;;;;;;8.53;7.07;;;11.00;99.90;;;;;;10402032;28;20224;-79
2022/10/04 22:46:21;;;;;;;10.17;7.20;;;10.90;99.90;;;;;;10411247;28;20754;-77
2022/10/04 22:51:21;;;;;;;10.83;6.93;;;10.90;99.90;;;;;;10412964;28;20300;-79
2022/10/04 22:56:23;;;;;;;9.90;7.00;;;10.80;99.90;;;;;;10393145;28;20568;-77
2022/10/04 23:01:26;;;;;;;8.60;6.30;;;10.70;99.90;;;;;;10390313;28;20221;-76
2022/10/04 23:06:27;;;;;;;10.83;6.23;;;10.60;99.90;;;;;;10393902;28;20384;-77
2022/10/04 23:11:30;;;;;;;8.50;7.00;;;10.60;99.90;;;;;;10410149;28;20291;-80
2022/10/04 23:16:31;;;;;;;10.10;7.17;;;10.50;99.90;;;;;;10405002;28;20756;-77
2022/10/04 23:21:35;;;;;;;8.67;6.27;;;10.40;99.90;;;;;;10403024;28;20298;-78
2022/10/04 23:26:40;;;;;;;9.20;6.60;;;10.30;99.90;;;;;;10409669;28;20288;-77
2022/10/04 23:31:41;;;;;;;10.33;6.83;;;10.20;99.90;;;;;;10413373;28;20254;-78
2022/10/04 23:36:41;;;;;;;8.73;6.13;;;10.10;99.90;;;;;;10401874;28;20763;-78
2022/10/04 23:41:43;;;;;;;8.93;6.77;;;10.00;99.90;;;;;;10406365;28;20662;-77
2022/10/04 23:46:43;;;;;;;10.37;6.43;;;10.00;99.90;;;;;;10395078;28;20246;-77
2022/10/04 23:51:45;;;;;;;11.27;7.00;;;9.90;99.90;;;;;;10395948;28;20220;-79
2022/10/04 23:56:47;;;;;;;11.00;6.97;;;9.90;99.90;;;;;;10404867;28;20229;-79
